Time;durP1;ratioP1;P1;durP2;ratioP2;P2;SDS_P1;SDS_P2;PMS_P1;PMS_P2;Temp;Humidity;BMP_temperature;BMP_pressure;BME280_temperature;BME280_humidity;BME280_pressure;Samples;Min_cycle;Max_cycle;Signal;HPM_P1;HPM_P2
2022/07/15 00:01:19;;;;;;;7.20;2.78;;;23.10;65.60;;;;;;6863774;28;20843;-79
2022/07/15 00:04:43;;;;;;;6.43;2.70;;;23.10;66.20;;;;;;6863197;28;20459;-80
2022/07/15 00:08:05;;;;;;;6.50;2.60;;;23.00;65.70;;;;;;6863228;28;20436;-78
2022/07/15 00:11:28;;;;;;;5.93;2.67;;;22.90;65.20;;;;;;6863920;28;20444;-79
2022/07/15 00:14:50;;;;;;;5.97;2.58;;;22.80;64.50;;;;;;6863590;28;20534;-80
2022/07/15 00:18:12;;;;;;;5.63;2.40;;;22.80;64.70;;;;;;6863307;28;21061;-80
2022/07/15 00:21:35;;;;;;;5.25;2.50;;;22.80;64.90;;;;;;6863740;28;20431;-79
2022/07/15 00:24:57;;;;;;;6.15;2.60;;;22.70;66.20;;;;;;6861383;28;20443;-78
2022/07/15 00:28:19;;;;;;;5.68;2.53;;;22.70;67.40;;;;;;6863275;28;20882;-79
2022/07/15 00:31:41;;;;;;;6.50;2.80;;;22.60;67.60;;;;;;6862494;28;20496;-79
2022/07/15 00:35:04;;;;;;;5.40;2.47;;;22.50;66.30;;;;;;6863660;28;20503;-79
2022/07/15 00:38:28;;;;;;;7.72;2.72;;;22.40;67.60;;;;;;6860752;28;20479;-80
2022/07/15 00:41:50;;;;;;;7.80;2.90;;;22.40;68.30;;;;;;6862536;28;20583;-80
2022/07/15 00:45:13;;;;;;;5.13;2.60;;;22.30;69.20;;;;;;6862503;28;20436;-79
2022/07/15 00:48:35;;;;;;;6.40;2.70;;;22.10;69.90;;;;;;6862342;28;20436;-78
2022/07/15 00:52:00;;;;;;;5.63;2.60;;;22.20;70.00;;;;;;6863026;28;20508;-79
2022/07/15 00:55:24;;;;;;;6.80;2.70;;;22.10;69.60;;;;;;6861447;28;20476;-79
2022/07/15 00:58:49;;;;;;;5.28;2.92;;;22.10;69.60;;;;;;6861742;28;20480;-79
2022/07/15 01:02:12;;;;;;;5.35;2.63;;;22.00;69.40;;;;;;6862779;28;20443;-78
2022/07/15 01:05:35;;;;;;;5.55;2.70;;;21.90;70.00;;;;;;6862718;28;20444;-79
2022/07/15 01:08:57;;;;;;;6.22;3.00;;;21.90;69.60;;;;;;6861209;28;20448;-77
2022/07/15 01:12:20;;;;;;;6.87;2.77;;;21.80;70.40;;;;;;6862726;28;20492;-78
2022/07/15 01:15:42;;;;;;;5.32;2.60;;;21.80;69.90;;;;;;6861027;28;20448;-80
2022/07/15 01:19:04;;;;;;;5.07;2.60;;;21.70;71.00;;;;;;6860924;28;20463;-79
2022/07/15 01:22:28;;;;;;;4.75;2.70;;;21.70;71.70;;;;;;6861677;28;20482;-79
2022/07/15 01:25:53;;;;;;;7.07;2.70;;;21.70;71.70;;;;;;6861707;28;20432;-77
2022/07/15 01:29:15;;;;;;;5.33;2.67;;;21.60;71.70;;;;;;6861598;28;20527;-79
2022/07/15 01:32:37;;;;;;;5.32;2.80;;;21.40;71.60;;;;;;6861998;28;20443;-79
2022/07/15 01:36:00;;;;;;;5.00;2.70;;;21.20;72.30;;;;;;6860561;28;20467;-79
2022/07/15 01:39:23;;;;;;;6.03;2.60;;;21.20;73.10;;;;;;6860573;28;20447;-79
2022/07/15 01:42:45;;;;;;;5.68;2.55;;;21.30;73.00;;;;;;6862021;28;20440;-79
2022/07/15 01:46:08;;;;;;;7.90;2.80;;;21.20;73.10;;;;;;6855954;28;20509;-79
2022/07/15 01:49:31;;;;;;;6.03;2.60;;;21.20;73.00;;;;;;6860883;28;20479;-79
2022/07/15 01:52:53;;;;;;;4.93;2.60;;;21.20;73.30;;;;;;6860498;28;20450;-78
2022/07/15 01:56:17;;;;;;;5.63;2.53;;;21.10;73.70;;;;;;6861374;28;20945;-78
2022/07/15 01:59:39;;;;;;;5.80;2.60;;;21.10;72.50;;;;;;6860028;28;20447;-80
2022/07/15 02:03:01;;;;;;;6.43;2.70;;;20.90;74.00;;;;;;6858975;28;20500;-80
2022/07/15 02:06:23;;;;;;;5.63;2.58;;;20.90;74.10;;;;;;6858648;28;20896;-78
2022/07/15 02:09:45;;;;;;;5.72;2.60;;;20.70;74.30;;;;;;6860149;28;20787;-78
2022/07/15 02:13:11;;;;;;;4.85;2.58;;;20.60;74.80;;;;;;6860082;28;20444;-79
2022/07/15 02:16:35;;;;;;;5.03;2.50;;;20.60;75.10;;;;;;6859668;28;20950;-79
2022/07/15 02:19:57;;;;;;;5.28;2.75;;;20.70;74.90;;;;;;6860002;28;20447;-79
2022/07/15 02:23:19;;;;;;;4.87;2.43;;;20.50;75.00;;;;;;6860825;28;20463;-78
2022/07/15 02:26:41;;;;;;;4.53;2.50;;;20.30;75.60;;;;;;6860916;28;20459;-79
2022/07/15 02:30:06;;;;;;;6.57;2.80;;;20.10;76.20;;;;;;6858209;28;20436;-78
2022/07/15 02:33:28;;;;;;;6.35;2.90;;;19.90;76.60;;;;;;6860675;28;20487;-79
2022/07/15 02:36:50;;;;;;;5.50;2.80;;;20.00;76.80;;;;;;6860529;28;20432;-79
2022/07/15 02:40:13;;;;;;;5.17;2.40;;;19.90;77.10;;;;;;6859160;28;20440;-78
2022/07/15 02:43:36;;;;;;;7.00;2.53;;;19.90;77.80;;;;;;6861437;28;20474;-77
2022/07/15 02:46:59;;;;;;;5.93;2.60;;;19.80;77.80;;;;;;6860687;28;20444;-79
2022/07/15 02:50:23;;;;;;;5.45;2.60;;;19.70;78.40;;;;;;6860525;28;20440;-79
2022/07/15 02:53:45;;;;;;;5.80;2.60;;;19.80;78.60;;;;;;6861253;28;20478;-78
2022/07/15 02:57:07;;;;;;;6.15;2.63;;;19.80;78.60;;;;;;6860653;28;20436;-78
2022/07/15 03:00:30;;;;;;;5.80;2.67;;;19.80;78.30;;;;;;6861878;28;20917;-79
2022/07/15 03:03:55;;;;;;;4.68;2.80;;;19.70;78.40;;;;;;6862518;28;20447;-80
2022/07/15 03:07:17;;;;;;;5.85;2.60;;;19.70;79.00;;;;;;6860233;28;20444;-80
2022/07/15 03:10:39;;;;;;;7.03;2.58;;;19.50;79.20;;;;;;6862060;28;20443;-78
2022/07/15 03:14:01;;;;;;;4.85;2.45;;;19.50;79.70;;;;;;6861053;28;20451;-75
2022/07/15 03:17:23;;;;;;;6.30;2.78;;;19.50;79.60;;;;;;6858691;28;20444;-78
2022/07/15 03:20:46;;;;;;;5.60;2.50;;;19.40;80.20;;;;;;6858828;28;20849;-80
2022/07/15 03:24:10;;;;;;;5.50;2.80;;;19.50;80.00;;;;;;6859308;28;20483;-77
2022/07/15 03:27:32;;;;;;;5.72;2.63;;;19.60;79.90;;;;;;6858558;28;20444;-79
2022/07/15 03:30:54;;;;;;;5.32;2.70;;;19.50;79.90;;;;;;6859379;28;20530;-79
2022/07/15 03:34:16;;;;;;;5.68;2.50;;;19.40;79.60;;;;;;6858886;28;20432;-79
2022/07/15 03:37:39;;;;;;;6.00;2.67;;;19.40;80.00;;;;;;6858429;28;20447;-78
2022/07/15 03:41:01;;;;;;;6.35;2.58;;;19.30;80.30;;;;;;6859641;28;20455;-79
2022/07/15 03:44:23;;;;;;;5.90;2.80;;;19.20;80.80;;;;;;6859145;28;20843;-80
2022/07/15 03:47:46;;;;;;;5.78;2.50;;;19.20;80.40;;;;;;6855837;28;20482;-79
2022/07/15 03:51:08;;;;;;;5.50;2.70;;;19.40;81.10;;;;;;6858036;28;21022;-78
2022/07/15 03:54:31;;;;;;;5.45;2.50;;;19.20;80.20;;;;;;6873051;28;20852;-79
2022/07/15 03:57:55;;;;;;;5.22;2.50;;;19.20;80.50;;;;;;6857795;28;20444;-81
2022/07/15 04:01:17;;;;;;;5.78;2.60;;;19.00;80.10;;;;;;6868513;28;20478;-79
2022/07/15 04:04:39;;;;;;;5.47;2.45;;;18.80;81.00;;;;;;6865805;28;20467;-78
2022/07/15 04:08:02;;;;;;;8.00;2.90;;;18.80;81.70;;;;;;6870642;28;20946;-79
2022/07/15 04:11:25;;;;;;;4.85;2.50;;;18.80;81.50;;;;;;6858143;28;21013;-78
2022/07/15 04:14:48;;;;;;;6.30;2.55;;;18.80;82.10;;;;;;6857083;28;20468;-78
2022/07/15 04:18:10;;;;;;;5.00;2.60;;;18.70;82.30;;;;;;6829130;28;20804;-81
2022/07/15 04:21:32;;;;;;;6.32;2.67;;;18.70;82.80;;;;;;6829179;29;20437;-79
2022/07/15 04:24:54;;;;;;;4.90;2.60;;;18.60;82.80;;;;;;6845641;28;20459;-79
2022/07/15 04:28:18;;;;;;;5.95;2.78;;;18.30;83.10;;;;;;6882004;28;20473;-80
2022/07/15 04:31:40;;;;;;;5.00;2.70;;;18.40;84.30;;;;;;6882210;28;20808;-80
2022/07/15 04:35:02;;;;;;;6.20;2.70;;;18.40;84.80;;;;;;6885066;28;20481;-79
2022/07/15 04:38:24;;;;;;;5.30;2.80;;;18.60;84.40;;;;;;6880868;28;20447;-79
2022/07/15 04:41:46;;;;;;;5.35;2.58;;;18.60;84.50;;;;;;6860098;28;20830;-79
2022/07/15 04:45:11;;;;;;;6.57;2.90;;;18.60;83.90;;;;;;6857756;28;20897;-79
2022/07/15 04:52:12;;;;;;;6.47;3.05;;;18.70;83.70;;;;;;6858542;28;20842;-81
2022/07/15 04:55:34;;;;;;;7.00;2.80;;;18.70;84.80;;;;;;6859684;28;20884;-81
2022/07/15 04:58:56;;;;;;;5.27;2.73;;;18.70;85.10;;;;;;6859698;28;20442;-82
2022/07/15 05:02:20;;;;;;;6.25;2.70;;;18.80;84.90;;;;;;6842844;28;21203;-81
2022/07/15 05:05:42;;;;;;;7.70;3.33;;;18.70;84.90;;;;;;6841557;28;20560;-81
2022/07/15 05:09:05;;;;;;;6.53;3.00;;;18.70;83.90;;;;;;6859696;28;20463;-81
2022/07/15 05:12:27;;;;;;;6.63;2.80;;;18.80;82.80;;;;;;6859484;28;20451;-82
2022/07/15 05:15:49;;;;;;;4.75;2.53;;;18.90;82.90;;;;;;6885958;28;20481;-82
2022/07/15 05:19:12;;;;;;;6.93;3.00;;;19.00;82.40;;;;;;6870829;28;20468;-82
2022/07/15 05:22:34;;;;;;;5.87;2.87;;;19.10;82.40;;;;;;6859281;28;20436;-81
2022/07/15 05:25:56;;;;;;;6.07;3.13;;;19.30;82.70;;;;;;6859009;28;20440;-82
2022/07/15 05:29:21;;;;;;;5.17;2.60;;;19.40;81.60;;;;;;6849845;28;20468;-81
2022/07/15 05:32:43;;;;;;;5.65;2.78;;;19.50;81.10;;;;;;6857037;28;20448;-81
2022/07/15 05:36:13;;;;;;;6.20;2.70;;;19.60;81.20;;;;;;6885810;28;20434;-81
2022/07/15 05:39:36;;;;;;;4.80;2.58;;;19.50;81.00;;;;;;6885120;28;20473;-80
2022/07/15 05:42:58;;;;;;;6.15;2.70;;;19.50;80.60;;;;;;6885445;28;20477;-82
2022/07/15 05:46:20;;;;;;;6.10;3.00;;;19.50;80.20;;;;;;6875942;28;20480;-81
2022/07/15 05:49:42;;;;;;;6.07;2.60;;;19.50;80.70;;;;;;6882413;28;20442;-82
2022/07/15 05:53:05;;;;;;;7.07;2.80;;;19.50;81.60;;;;;;6884504;28;20514;-81
2022/07/15 05:56:28;;;;;;;5.67;2.80;;;19.50;81.20;;;;;;6884961;28;20434;-83
2022/07/15 05:59:50;;;;;;;5.97;2.75;;;19.50;79.60;;;;;;6885112;28;20955;-81
2022/07/15 06:03:12;;;;;;;5.55;2.38;;;19.60;80.10;;;;;;6883325;28;21006;-81
2022/07/15 06:06:34;;;;;;;5.90;2.80;;;19.60;79.70;;;;;;6884706;28;20498;-81
2022/07/15 06:09:57;;;;;;;7.80;2.77;;;19.70;78.40;;;;;;6885081;28;20477;-83
2022/07/15 06:13:20;;;;;;;6.63;2.83;;;19.70;77.90;;;;;;6880284;28;20514;-79
2022/07/15 06:16:42;;;;;;;6.60;2.67;;;19.80;77.70;;;;;;6884835;28;20521;-81
2022/07/15 06:20:07;;;;;;;6.97;2.90;;;19.70;76.50;;;;;;6883785;28;20480;-85
2022/07/15 06:23:29;;;;;;;7.63;3.42;;;19.70;79.30;;;;;;6882976;28;20449;-78
2022/07/15 06:26:53;;;;;;;7.97;2.90;;;19.80;78.20;;;;;;6883933;28;20532;-78
2022/07/15 06:30:15;;;;;;;5.68;2.70;;;19.80;78.90;;;;;;6884021;28;20474;-80
2022/07/15 06:33:37;;;;;;;6.78;3.08;;;19.90;78.10;;;;;;6884045;28;20525;-79
2022/07/15 06:36:59;;;;;;;7.77;2.90;;;19.90;78.40;;;;;;6884409;28;21154;-79
2022/07/15 06:40:21;;;;;;;5.95;2.55;;;19.90;78.30;;;;;;6879882;28;21075;-78
2022/07/15 06:43:45;;;;;;;8.17;3.00;;;19.90;79.10;;;;;;6883795;28;20468;-80
2022/07/15 06:47:07;;;;;;;6.35;2.60;;;20.10;78.20;;;;;;6865347;28;20442;-80
2022/07/15 06:50:29;;;;;;;6.05;2.58;;;20.20;78.30;;;;;;6857637;28;20443;-80
2022/07/15 06:53:51;;;;;;;6.78;2.70;;;20.30;78.30;;;;;;6855288;28;20535;-81
2022/07/15 06:57:16;;;;;;;6.18;2.50;;;20.40;77.20;;;;;;6856247;28;20484;-81
2022/07/15 07:00:39;;;;;;;8.20;2.58;;;20.40;74.30;;;;;;6854275;28;20435;-81
2022/07/15 07:04:02;;;;;;;7.13;2.47;;;20.50;74.70;;;;;;6830045;29;21155;-79
2022/07/15 07:07:24;;;;;;;7.20;2.40;;;20.60;74.50;;;;;;6847358;28;20432;-80
2022/07/15 07:10:46;;;;;;;5.23;2.40;;;20.60;72.00;;;;;;6855839;28;20466;-80
2022/07/15 07:14:08;;;;;;;6.07;2.20;;;20.60;70.10;;;;;;6856323;28;20945;-81
2022/07/15 07:17:31;;;;;;;6.20;2.20;;;20.70;70.90;;;;;;6855711;28;20432;-81
2022/07/15 07:20:53;;;;;;;5.93;2.10;;;20.70;69.10;;;;;;6856326;28;20436;-80
2022/07/15 07:24:15;;;;;;;6.28;2.10;;;20.80;68.40;;;;;;6856822;28;20480;-81
2022/07/15 07:27:38;;;;;;;6.63;1.98;;;20.90;68.50;;;;;;6857992;28;20491;-79
2022/07/15 07:31:00;;;;;;;10.38;4.30;;;21.00;69.10;;;;;;6867098;28;20438;-80
2022/07/15 07:34:23;;;;;;;8.53;2.80;;;21.10;68.20;;;;;;6872075;28;20448;-80
2022/07/15 07:37:45;;;;;;;7.65;2.67;;;21.10;68.80;;;;;;6857181;28;20435;-80
2022/07/15 07:41:07;;;;;;;7.18;2.20;;;21.20;69.20;;;;;;6883232;28;20461;-80
2022/07/15 07:44:29;;;;;;;6.07;2.20;;;21.30;68.40;;;;;;6880941;28;20450;-79
2022/07/15 07:47:52;;;;;;;8.80;2.20;;;21.30;69.30;;;;;;6833537;28;20489;-79
2022/07/15 07:51:15;;;;;;;8.90;2.50;;;21.40;68.20;;;;;;6829550;29;20556;-79
2022/07/15 07:54:37;;;;;;;6.75;2.50;;;21.40;69.00;;;;;;6829510;28;20457;-79
2022/07/15 07:58:00;;;;;;;5.75;2.50;;;21.40;68.80;;;;;;6875582;28;20950;-79
2022/07/15 08:01:23;;;;;;;6.68;2.17;;;21.40;67.90;;;;;;6867287;28;20437;-83
2022/07/15 08:04:45;;;;;;;6.07;2.03;;;21.60;69.10;;;;;;6856279;28;20910;-78
2022/07/15 08:08:13;;;;;;;9.13;2.50;;;21.70;70.40;;;;;;6856058;28;20467;-80
2022/07/15 08:11:35;;;;;;;8.05;2.50;;;21.80;67.40;;;;;;6859682;28;21265;-77
2022/07/15 08:14:57;;;;;;;6.18;2.05;;;21.80;69.60;;;;;;6859810;28;20953;-78
2022/07/15 08:18:19;;;;;;;6.30;2.00;;;21.90;67.20;;;;;;6859931;28;20512;-78
2022/07/15 08:21:42;;;;;;;5.10;1.60;;;21.90;66.90;;;;;;6860120;28;20559;-76
2022/07/15 08:25:07;;;;;;;5.97;1.80;;;21.80;63.50;;;;;;6859905;28;20436;-76
2022/07/15 08:28:29;;;;;;;6.77;1.90;;;21.90;65.10;;;;;;6858572;28;20444;-77
2022/07/15 08:31:51;;;;;;;5.47;1.80;;;22.00;62.70;;;;;;6860003;28;20474;-76
2022/07/15 08:35:13;;;;;;;5.57;1.80;;;22.10;64.20;;;;;;6859445;28;20479;-77
2022/07/15 08:38:35;;;;;;;6.22;1.60;;;22.20;66.60;;;;;;6858793;28;20507;-78
2022/07/15 08:41:59;;;;;;;5.57;1.73;;;22.20;61.90;;;;;;6885987;28;20919;-77
2022/07/15 08:45:21;;;;;;;5.30;1.70;;;22.30;63.30;;;;;;6876409;28;20802;-77
2022/07/15 08:48:51;;;;;;;5.97;1.83;;;22.30;61.60;;;;;;6886029;28;20466;-78
2022/07/15 08:52:14;;;;;;;4.50;1.77;;;22.40;63.40;;;;;;6861098;28;20921;-78
2022/07/15 08:55:37;;;;;;;6.00;1.70;;;22.40;60.80;;;;;;6858361;28;20455;-79
2022/07/15 08:59:01;;;;;;;4.78;1.63;;;22.40;61.10;;;;;;6858975;28;20862;-77
2022/07/15 09:02:23;;;;;;;7.18;1.80;;;22.50;61.80;;;;;;6859320;28;20472;-77
2022/07/15 09:05:45;;;;;;;4.07;1.67;;;22.50;62.00;;;;;;6855836;28;20447;-77
2022/07/15 09:09:25;;;;;;;4.63;1.80;;;22.60;61.00;;;;;;6861797;28;20928;-76
2022/07/15 09:12:51;;;;;;;7.27;1.83;;;22.70;60.70;;;;;;6853715;28;20478;-76
2022/07/15 09:16:20;;;;;;;5.25;1.60;;;22.90;62.40;;;;;;6858266;28;20446;-77
2022/07/15 09:20:14;;;;;;;5.20;1.70;;;22.80;59.50;;;;;;6855840;28;20480;-75
2022/07/15 09:23:36;;;;;;;6.07;2.47;;;22.80;59.30;;;;;;6801573;28;20954;-74
2022/07/15 09:26:58;;;;;;;5.53;1.88;;;22.80;61.30;;;;;;6858392;28;20479;-74
2022/07/15 09:34:04;;;;;;;4.30;1.95;;;22.80;59.40;;;;;;6855727;28;20450;-76
2022/07/15 09:37:27;;;;;;;6.22;2.10;;;22.90;61.10;;;;;;6851578;28;20535;-78
2022/07/15 09:40:49;;;;;;;6.67;1.93;;;23.10;59.70;;;;;;6857279;28;20502;-78
2022/07/15 09:44:14;;;;;;;5.75;1.85;;;23.00;56.20;;;;;;6857082;28;20439;-79
2022/07/15 09:47:36;;;;;;;4.82;1.70;;;22.90;56.00;;;;;;6858949;28;20451;-79
2022/07/15 09:51:02;;;;;;;5.38;1.98;;;22.90;56.40;;;;;;6862174;28;20432;-75
2022/07/15 09:54:28;;;;;;;5.38;2.20;;;22.80;56.20;;;;;;6861694;28;20448;-79
2022/07/15 09:57:50;;;;;;;5.82;2.40;;;22.80;56.50;;;;;;6861457;28;20523;-77
2022/07/15 10:01:13;;;;;;;5.82;2.00;;;22.80;56.10;;;;;;6861457;28;20474;-78
2022/07/15 10:04:35;;;;;;;5.93;2.00;;;22.90;55.60;;;;;;6861520;28;20453;-79
2022/07/15 10:08:01;;;;;;;5.63;1.80;;;22.90;55.70;;;;;;6861161;28;20439;-79
2022/07/15 10:11:23;;;;;;;5.65;1.90;;;23.10;55.50;;;;;;6861409;28;20455;-79
2022/07/15 10:15:04;;;;;;;4.90;1.95;;;23.10;56.40;;;;;;6861000;28;20889;-79
2022/07/15 10:18:44;;;;;;;5.87;1.70;;;23.10;56.40;;;;;;6860763;28;20556;-79
2022/07/15 10:22:21;;;;;;;5.60;1.97;;;23.20;55.80;;;;;;6860830;28;20432;-77
2022/07/15 10:25:59;;;;;;;4.50;1.77;;;23.20;56.20;;;;;;6860795;28;20474;-77
2022/07/15 10:29:21;;;;;;;5.90;2.28;;;23.30;57.10;;;;;;6860718;28;20432;-80
2022/07/15 10:33:13;;;;;;;4.80;2.13;;;23.30;56.40;;;;;;6860047;28;20436;-78
2022/07/15 10:36:40;;;;;;;4.32;2.00;;;23.30;56.50;;;;;;6860650;28;20519;-79
2022/07/15 10:40:06;;;;;;;6.60;2.10;;;23.40;55.90;;;;;;6860340;28;20432;-75
2022/07/15 10:43:48;;;;;;;6.53;2.10;;;23.40;55.50;;;;;;6860459;28;20519;-78
2022/07/15 10:47:20;;;;;;;4.95;2.00;;;23.40;56.20;;;;;;6859973;28;20478;-78
2022/07/15 10:50:43;;;;;;;5.32;1.90;;;23.40;55.50;;;;;;6860431;28;20432;-81
2022/07/15 10:54:09;;;;;;;7.03;2.13;;;23.40;56.10;;;;;;6860001;28;20783;-79
2022/07/15 10:58:03;;;;;;;5.43;1.90;;;23.40;55.50;;;;;;6860124;28;20790;-80
2022/07/15 11:01:28;;;;;;;5.63;2.05;;;23.50;55.40;;;;;;6787003;28;20850;-77
2022/07/15 11:04:52;;;;;;;7.82;2.22;;;23.50;54.90;;;;;;6846503;28;20443;-79
2022/07/15 11:08:55;;;;;;;5.50;2.08;;;23.50;56.40;;;;;;6858972;28;20443;-79
2022/07/15 11:12:20;;;;;;;4.80;2.00;;;23.70;56.60;;;;;;6806886;28;20799;-78
2022/07/15 11:15:44;;;;;;;5.30;2.10;;;23.80;56.10;;;;;;6826897;28;20449;-77
2022/07/15 11:19:12;;;;;;;6.13;2.20;;;23.90;58.60;;;;;;6832533;29;20434;-76
2022/07/15 11:22:34;;;;;;;6.20;2.10;;;24.00;56.30;;;;;;6833515;29;20433;-78
2022/07/15 11:25:56;;;;;;;5.37;1.93;;;24.10;56.50;;;;;;6849816;28;20952;-85
2022/07/15 11:29:19;;;;;;;5.05;2.00;;;24.20;56.00;;;;;;6844271;28;20448;-78
2022/07/15 11:32:43;;;;;;;7.05;2.50;;;24.40;56.10;;;;;;6834417;28;20433;-82
2022/07/15 11:36:08;;;;;;;5.43;2.03;;;24.50;54.20;;;;;;6825616;28;20945;-83
2022/07/15 11:39:30;;;;;;;5.57;2.05;;;24.50;54.80;;;;;;6832178;28;20457;-79
2022/07/15 11:46:34;;;;;;;5.97;1.83;;;24.80;53.40;;;;;;6852637;28;20439;-80
2022/07/15 11:50:00;;;;;;;5.32;2.10;;;24.90;53.40;;;;;;6867110;28;20512;-79
2022/07/15 11:53:25;;;;;;;5.25;2.00;;;25.00;54.50;;;;;;6872981;28;20440;-80
2022/07/15 11:56:54;;;;;;;5.57;2.25;;;25.10;53.00;;;;;;6858569;28;20514;-80
2022/07/15 12:00:16;;;;;;;6.05;1.90;;;25.30;54.40;;;;;;6834227;29;20469;-78
2022/07/15 12:03:42;;;;;;;5.25;2.20;;;25.40;54.20;;;;;;6854852;28;20436;-78
2022/07/15 12:07:05;;;;;;;5.07;1.93;;;25.60;54.20;;;;;;6858984;28;20964;-78
2022/07/15 12:10:37;;;;;;;6.68;2.00;;;25.70;52.50;;;;;;6861547;28;20432;-81
2022/07/15 12:14:02;;;;;;;5.67;2.07;;;25.60;52.00;;;;;;6859815;28;20455;-78
2022/07/15 12:17:24;;;;;;;7.23;2.20;;;25.60;52.10;;;;;;6861133;28;20482;-82
2022/07/15 12:20:47;;;;;;;5.40;2.10;;;25.70;51.60;;;;;;6866906;28;20825;-81
2022/07/15 12:24:12;;;;;;;5.38;2.10;;;25.80;51.90;;;;;;6885519;28;20485;-77
2022/07/15 12:27:37;;;;;;;7.38;2.30;;;25.80;51.50;;;;;;6873764;28;20498;-79
2022/07/15 12:31:00;;;;;;;5.95;2.10;;;25.80;51.50;;;;;;6859344;28;20435;-79
2022/07/15 12:34:23;;;;;;;6.13;2.13;;;25.90;51.50;;;;;;6859958;28;20451;-82
2022/07/15 12:37:50;;;;;;;6.70;2.20;;;25.90;52.70;;;;;;6850057;28;20501;-79
2022/07/15 12:41:25;;;;;;;5.18;2.00;;;26.00;52.20;;;;;;6858531;28;20440;-79
2022/07/15 12:45:07;;;;;;;7.00;2.13;;;26.10;51.70;;;;;;6859949;28;20440;-78
2022/07/15 12:48:29;;;;;;;5.40;2.40;;;26.10;51.50;;;;;;6833723;28;20442;-78
2022/07/15 12:51:51;;;;;;;4.97;2.00;;;26.00;50.80;;;;;;6860407;28;20451;-78
2022/07/15 12:55:16;;;;;;;6.72;2.13;;;25.90;51.10;;;;;;6857668;28;20451;-79
2022/07/15 12:58:38;;;;;;;5.78;2.05;;;25.90;52.00;;;;;;6858071;28;20455;-80
2022/07/15 13:02:05;;;;;;;4.77;2.00;;;25.90;51.80;;;;;;6879933;28;20559;-81
2022/07/15 13:05:29;;;;;;;5.97;2.27;;;26.10;50.50;;;;;;6859127;28;20540;-80
2022/07/15 13:08:51;;;;;;;7.78;2.20;;;26.30;52.10;;;;;;6859397;28;20504;-81
2022/07/15 13:12:15;;;;;;;5.47;2.20;;;26.40;50.20;;;;;;6860550;28;20481;-80
2022/07/15 13:15:37;;;;;;;5.85;2.20;;;26.40;50.50;;;;;;6859394;28;20594;-79
2022/07/15 13:19:00;;;;;;;5.25;2.00;;;26.40;50.10;;;;;;6858164;28;20451;-79
2022/07/15 13:22:22;;;;;;;5.18;2.00;;;26.40;51.40;;;;;;6863795;28;20445;-78
2022/07/15 13:25:45;;;;;;;5.90;2.10;;;26.80;50.80;;;;;;6885835;28;20441;-78
2022/07/15 13:29:07;;;;;;;5.55;2.10;;;26.80;50.20;;;;;;6870532;28;20918;-78
2022/07/15 13:32:29;;;;;;;5.95;1.90;;;26.70;49.90;;;;;;6859267;28;20479;-79
2022/07/15 13:35:53;;;;;;;5.68;2.20;;;26.90;51.10;;;;;;6878834;28;20547;-80
2022/07/15 13:39:15;;;;;;;5.60;2.20;;;27.20;51.10;;;;;;6854934;28;20822;-77
2022/07/15 13:42:38;;;;;;;4.60;1.90;;;27.40;50.60;;;;;;6855938;28;21503;-78
2022/07/15 13:46:00;;;;;;;6.75;2.08;;;27.40;49.70;;;;;;6858419;28;20879;-78
2022/07/15 13:51:22;;;;;;;5.72;1.90;;;27.50;49.90;;;;;;6853909;28;20949;-78
2022/07/15 13:53:06;;;;;;;4.82;2.05;;;27.70;50.30;;;;;;6862137;28;20435;-79
2022/07/15 13:56:28;;;;;;;6.77;1.80;;;27.70;48.70;;;;;;6862831;28;20461;-78
2022/07/15 13:59:50;;;;;;;6.57;2.05;;;27.50;49.60;;;;;;6868248;28;20443;-80
2022/07/15 14:03:12;;;;;;;7.07;2.42;;;27.70;49.60;;;;;;6851475;28;20473;-79
2022/07/15 14:06:34;;;;;;;6.57;2.15;;;27.70;50.30;;;;;;6834953;28;20945;-78
2022/07/15 14:09:57;;;;;;;7.90;2.00;;;27.90;50.80;;;;;;6857876;28;20943;-79
2022/07/15 14:13:20;;;;;;;6.13;2.10;;;27.90;48.90;;;;;;6874678;28;20482;-79
2022/07/15 14:16:42;;;;;;;6.97;2.10;;;27.80;48.50;;;;;;6858930;28;20496;-79
2022/07/15 14:20:06;;;;;;;5.18;1.83;;;27.80;49.00;;;;;;6860717;28;20943;-80
2022/07/15 14:23:28;;;;;;;4.43;1.90;;;27.90;49.10;;;;;;6872076;28;20534;-79
2022/07/15 14:26:52;;;;;;;6.20;2.10;;;28.00;49.40;;;;;;6858297;28;20452;-79
2022/07/15 14:30:24;;;;;;;5.40;2.00;;;27.90;48.40;;;;;;7073274;27;20400;-78
2022/07/15 14:33:46;;;;;;;5.28;1.92;;;28.00;48.60;;;;;;7068642;28;20431;-79
2022/07/15 14:37:08;;;;;;;6.45;1.80;;;28.10;48.20;;;;;;7072671;28;21237;-79
2022/07/15 14:40:30;;;;;;;5.78;2.00;;;28.20;49.90;;;;;;7059102;27;20465;-79
2022/07/15 14:43:52;;;;;;;4.85;2.20;;;28.10;48.70;;;;;;7047782;28;20425;-77
2022/07/15 14:47:16;;;;;;;6.07;2.00;;;28.00;48.60;;;;;;7027517;28;20453;-76
2022/07/15 14:50:38;;;;;;;6.30;1.90;;;28.00;49.20;;;;;;7028531;28;20928;-77
2022/07/15 14:54:00;;;;;;;6.25;1.90;;;28.10;48.60;;;;;;7044440;28;20455;-76
2022/07/15 14:57:22;;;;;;;5.37;2.00;;;28.30;48.60;;;;;;7054931;28;20903;-78
2022/07/15 15:00:44;;;;;;;5.73;2.10;;;28.40;48.00;;;;;;7055377;28;20454;-77
2022/07/15 15:04:07;;;;;;;4.85;1.80;;;28.30;48.30;;;;;;7051250;28;20785;-77
2022/07/15 15:07:30;;;;;;;4.47;1.85;;;28.30;48.20;;;;;;7054628;27;20453;-79
2022/07/15 15:10:52;;;;;;;5.97;2.00;;;28.30;48.20;;;;;;7044327;28;20446;-80
2022/07/15 15:14:14;;;;;;;5.35;1.77;;;28.40;48.30;;;;;;7035392;28;20461;-77
2022/07/15 15:17:36;;;;;;;5.50;2.00;;;28.60;48.30;;;;;;7054539;28;20552;-78
2022/07/15 15:21:00;;;;;;;5.60;1.77;;;28.50;48.40;;;;;;7042706;28;20460;-80
2022/07/15 15:24:22;;;;;;;6.40;2.10;;;28.40;47.60;;;;;;7060856;27;20433;-79
2022/07/15 15:27:44;;;;;;;5.03;1.90;;;28.40;48.20;;;;;;7037301;28;20430;-78
2022/07/15 15:31:06;;;;;;;4.50;1.67;;;28.30;48.80;;;;;;7035767;28;20931;-79
2022/07/15 15:34:29;;;;;;;7.50;1.90;;;28.40;47.90;;;;;;7049742;28;20890;-76
2022/07/15 15:37:53;;;;;;;5.65;1.90;;;28.70;47.40;;;;;;7048776;28;20511;-79
2022/07/15 15:41:15;;;;;;;6.27;2.13;;;28.60;46.80;;;;;;7043591;28;20473;-78
2022/07/15 15:44:38;;;;;;;5.77;1.70;;;28.60;48.20;;;;;;7029862;28;20452;-80
2022/07/15 15:48:01;;;;;;;5.87;1.80;;;28.80;48.00;;;;;;7025530;28;20431;-77
2022/07/15 15:51:23;;;;;;;5.10;1.80;;;28.90;48.00;;;;;;7030907;28;20478;-78
2022/07/15 15:54:47;;;;;;;4.38;1.60;;;29.10;47.20;;;;;;7025553;28;20437;-77
2022/07/15 15:58:09;;;;;;;5.30;2.10;;;29.00;47.60;;;;;;7023742;28;20448;-80
2022/07/15 16:01:31;;;;;;;4.57;1.70;;;29.00;46.60;;;;;;7026397;28;20468;-79
2022/07/15 16:04:53;;;;;;;6.57;2.10;;;28.70;46.90;;;;;;7023078;28;20434;-78
2022/07/15 16:08:15;;;;;;;5.73;1.77;;;28.80;47.00;;;;;;7017929;28;20438;-78
2022/07/15 16:11:39;;;;;;;8.13;2.35;;;28.80;46.90;;;;;;7017232;28;20435;-79
2022/07/15 16:15:01;;;;;;;5.70;1.90;;;29.40;46.80;;;;;;7031973;28;20441;-79
2022/07/15 16:18:24;;;;;;;5.43;1.90;;;29.70;45.70;;;;;;7016699;28;20949;-80
2022/07/15 16:25:34;;;;;;;6.88;2.00;;;28.80;46.50;;;;;;7020161;28;20509;-79
2022/07/15 16:29:01;;;;;;;7.13;3.20;;;28.50;46.80;;;;;;7019668;28;20783;-79
2022/07/15 16:32:23;;;;;;;6.47;2.33;;;28.60;47.10;;;;;;7015842;28;20437;-76
2022/07/15 16:35:45;;;;;;;5.27;1.90;;;28.70;46.90;;;;;;7020771;28;20433;-79
2022/07/15 16:39:08;;;;;;;4.00;1.90;;;28.60;46.70;;;;;;7021197;28;20490;-78
2022/07/15 16:42:30;;;;;;;6.40;1.63;;;28.50;47.30;;;;;;7019195;28;20480;-78
2022/07/15 16:45:53;;;;;;;5.88;2.20;;;28.20;46.50;;;;;;7018934;28;20489;-79
2022/07/15 16:49:15;;;;;;;5.93;2.20;;;28.30;47.40;;;;;;7018767;28;20476;-77
2022/07/15 16:52:38;;;;;;;3.92;1.70;;;28.40;46.60;;;;;;7019461;28;20434;-77
2022/07/15 16:56:00;;;;;;;4.73;1.90;;;28.50;46.90;;;;;;7019686;28;20465;-78
2022/07/15 16:59:22;;;;;;;5.00;1.87;;;28.70;46.70;;;;;;7034442;28;20438;-77
2022/07/15 17:02:48;;;;;;;6.85;2.95;;;28.80;45.80;;;;;;7027118;28;20432;-80
2022/07/15 17:06:14;;;;;;;6.30;1.88;;;28.70;46.10;;;;;;7033657;28;20480;-81
2022/07/15 17:09:38;;;;;;;6.80;3.43;;;28.40;46.00;;;;;;7020119;28;20468;-79
2022/07/15 17:13:02;;;;;;;5.88;2.10;;;28.40;47.10;;;;;;6999444;28;20908;-79
2022/07/15 17:16:24;;;;;;;4.13;1.83;;;28.50;46.00;;;;;;6992793;28;20435;-77
2022/07/15 17:19:48;;;;;;;5.72;1.80;;;28.70;45.90;;;;;;7020037;28;20429;-77
2022/07/15 17:23:10;;;;;;;4.82;1.80;;;28.80;46.00;;;;;;7042132;28;20478;-78
2022/07/15 17:26:32;;;;;;;4.70;1.83;;;28.60;45.80;;;;;;7049258;28;20435;-78
2022/07/15 17:29:54;;;;;;;4.37;1.50;;;28.60;45.70;;;;;;7045509;28;20440;-76
2022/07/15 17:33:17;;;;;;;4.57;1.90;;;28.20;46.10;;;;;;7023354;28;20468;-77
2022/07/15 17:36:41;;;;;;;5.78;1.90;;;28.20;46.40;;;;;;7023764;28;21165;-78
2022/07/15 17:40:04;;;;;;;6.20;1.70;;;28.20;46.40;;;;;;7048462;28;20431;-77
2022/07/15 17:43:26;;;;;;;6.23;2.00;;;28.30;46.10;;;;;;7037934;28;20463;-77
2022/07/15 17:46:48;;;;;;;5.53;1.70;;;28.20;46.00;;;;;;7048388;28;20420;-77
2022/07/15 17:50:11;;;;;;;4.93;1.80;;;28.00;45.70;;;;;;7040770;28;20437;-80
2022/07/15 17:53:34;;;;;;;5.47;1.80;;;28.20;46.30;;;;;;7016616;28;20469;-78
2022/07/15 17:56:56;;;;;;;4.50;1.70;;;28.30;45.80;;;;;;7017901;28;20465;-79